createdAt,value
2017-10-25T00:15:16.494Z,57.20
2017-10-25T00:18:42.109Z,57.30
2017-10-25T00:22:07.681Z,57.20
2017-10-25T00:25:33.025Z,57.20
2017-10-25T00:28:58.354Z,57.20
2017-10-25T00:32:23.751Z,57.20
2017-10-25T00:35:49.310Z,57.10
2017-10-25T00:39:14.718Z,57.20
2017-10-25T00:42:40.132Z,57.20
2017-10-25T00:46:05.388Z,57.20
2017-10-25T00:49:31.045Z,57.20
2017-10-25T00:52:56.366Z,57.20
2017-10-25T00:56:22.985Z,57.30
2017-10-25T00:59:48.119Z,57.20
2017-10-25T01:03:13.902Z,57.20
2017-10-25T01:06:39.497Z,57.10
2017-10-25T01:10:05.103Z,57.10
2017-10-25T01:13:30.812Z,57.10
2017-10-25T01:16:56.372Z,57.10
2017-10-25T01:20:21.853Z,57.10
2017-10-25T01:23:48.521Z,57.10
2017-10-25T01:27:14.508Z,57.10
2017-10-25T01:30:39.930Z,57.10
2017-10-25T01:34:09.268Z,57.20
2017-10-25T01:37:35.702Z,57.20
2017-10-25T01:41:01.207Z,57.10
2017-10-25T01:44:26.554Z,57.20
2017-10-25T01:47:52.125Z,57.20
2017-10-25T01:51:17.670Z,57.20
2017-10-25T01:54:43.989Z,57.20
2017-10-25T01:58:09.621Z,57.30
2017-10-25T02:01:34.861Z,57.20
2017-10-25T02:05:01.289Z,57.20
2017-10-25T02:08:26.851Z,57.20
2017-10-25T02:11:52.241Z,57.20
2017-10-25T02:15:17.837Z,57.10
2017-10-25T02:18:43.135Z,57.20
2017-10-25T02:22:08.417Z,57.10
2017-10-25T02:25:34.085Z,57.20
2017-10-25T02:28:59.894Z,57.10
2017-10-25T02:32:25.576Z,57.20
2017-10-25T02:35:51.036Z,57.10
2017-10-25T02:39:16.558Z,57.10
2017-10-25T02:42:41.913Z,57.10
2017-10-25T02:46:07.364Z,57.10
2017-10-25T02:49:32.912Z,57.10
2017-10-25T02:52:58.834Z,57.10
2017-10-25T02:56:43.205Z,57.10
2017-10-25T03:00:08.977Z,57.10
2017-10-25T03:03:34.439Z,57.10
2017-10-25T03:07:00.549Z,57.20
2017-10-25T03:10:26.400Z,57.20
2017-10-25T03:13:51.913Z,57.20
2017-10-25T03:17:17.226Z,57.20
2017-10-25T03:20:42.798Z,57.20
2017-10-25T03:24:09.325Z,57.30
2017-10-25T03:27:35.689Z,57.30
2017-10-25T03:31:01.458Z,57.30
2017-10-25T03:34:26.823Z,57.30
2017-10-25T03:37:52.358Z,57.30
2017-10-25T03:41:17.677Z,57.20
2017-10-25T03:44:43.236Z,57.30
2017-10-25T03:48:09.060Z,57.30
2017-10-25T03:51:34.586Z,57.40
2017-10-25T03:55:00.954Z,57.40
2017-10-25T03:58:26.292Z,57.30
2017-10-25T04:01:51.918Z,57.40
2017-10-25T04:05:17.448Z,57.30
2017-10-25T04:08:43.134Z,57.00
2017-10-25T04:12:08.854Z,56.00
2017-10-25T04:15:34.220Z,55.70
2017-10-25T04:18:59.727Z,55.20
2017-10-25T04:22:25.137Z,54.60
2017-10-25T04:25:52.073Z,53.80
2017-10-25T04:29:17.672Z,53.80
2017-10-25T04:32:43.442Z,53.40
2017-10-25T04:36:09.197Z,53.30
2017-10-25T04:39:35.304Z,52.70
2017-10-25T04:43:00.578Z,52.70
2017-10-25T04:46:26.229Z,52.40
2017-10-25T04:49:51.644Z,52.00
2017-10-25T04:53:17.532Z,52.00
2017-10-25T04:56:42.832Z,51.50
2017-10-25T05:00:08.567Z,51.20
2017-10-25T05:03:34.398Z,51.20
2017-10-25T05:07:00.164Z,50.90
2017-10-25T05:10:25.688Z,50.60
2017-10-25T05:13:56.501Z,50.70
2017-10-25T05:17:21.868Z,50.70
2017-10-25T05:20:48.181Z,50.20
2017-10-25T05:24:13.507Z,50.20
2017-10-25T05:27:39.053Z,50.20
2017-10-25T05:31:04.624Z,50.00
2017-10-25T05:34:30.050Z,49.80
2017-10-25T05:37:55.452Z,49.90
2017-10-25T05:41:20.902Z,49.90
2017-10-25T05:44:47.027Z,50.20
2017-10-25T05:48:13.042Z,50.30
2017-10-25T05:51:38.483Z,50.30
2017-10-25T05:55:12.761Z,50.80
2017-10-25T05:58:38.337Z,50.80
2017-10-25T06:02:04.062Z,51.00
2017-10-25T06:05:30.336Z,51.30
2017-10-25T06:08:59.338Z,51.40
2017-10-25T06:12:24.910Z,51.70
2017-10-25T06:15:51.142Z,52.20
2017-10-25T06:19:18.560Z,52.40
2017-10-25T06:22:44.226Z,52.40
2017-10-25T06:53:48.246Z,53.80
2017-10-25T06:57:13.924Z,53.90
2017-10-25T07:00:39.230Z,54.00
2017-10-25T07:04:05.216Z,54.10
2017-10-25T07:07:30.518Z,54.10
2017-10-25T07:10:59.082Z,54.70
2017-10-25T07:14:25.125Z,54.30
2017-10-25T07:17:50.436Z,54.30
2017-10-25T07:21:16.846Z,54.40
2017-10-25T07:24:42.805Z,54.40
2017-10-25T07:28:08.244Z,54.60
2017-10-25T07:31:35.113Z,54.50
2017-10-25T07:35:01.444Z,54.60
2017-10-25T07:38:27.826Z,54.70
2017-10-25T07:41:54.029Z,54.70
2017-10-25T07:45:19.363Z,54.80
2017-10-25T07:48:45.835Z,54.80
2017-10-25T07:52:11.149Z,54.80
2017-10-25T07:55:36.609Z,54.90
2017-10-25T07:59:01.866Z,54.90
2017-10-25T08:02:27.315Z,54.80
2017-10-25T08:05:55.455Z,54.90
2017-10-25T08:09:20.909Z,54.90
2017-10-25T08:12:47.655Z,54.90
2017-10-25T08:16:12.965Z,54.80
2017-10-25T08:19:38.343Z,54.80
2017-10-25T08:23:04.700Z,54.80
2017-10-25T08:26:30.534Z,54.80
2017-10-25T08:29:56.049Z,54.80
2017-10-25T08:33:21.876Z,54.80
2017-10-25T08:36:48.006Z,54.80
2017-10-25T08:40:14.078Z,54.80
2017-10-25T08:43:41.569Z,54.90
2017-10-25T08:47:09.700Z,54.90
2017-10-25T08:50:35.147Z,54.90
2017-10-25T08:54:02.713Z,54.70
2017-10-25T08:57:28.142Z,54.70
2017-10-25T09:00:53.530Z,54.70
2017-10-25T09:04:18.947Z,54.80
2017-10-25T09:07:44.563Z,54.80
2017-10-25T09:11:11.658Z,54.90
2017-10-25T09:14:37.836Z,54.90
2017-10-25T09:18:04.045Z,54.90
2017-10-25T09:21:29.376Z,54.90
2017-10-25T09:24:56.251Z,55.00
2017-10-25T09:28:22.277Z,55.00
2017-10-25T09:31:47.861Z,55.00
2017-10-25T09:35:14.204Z,55.00
2017-10-25T09:38:40.286Z,54.90
2017-10-25T09:42:07.834Z,54.80
2017-10-25T09:45:36.732Z,54.90
2017-10-25T09:49:07.870Z,54.90
2017-10-25T09:52:34.310Z,54.80
2017-10-25T09:56:00.794Z,54.80
2017-10-25T09:59:26.056Z,54.80
2017-10-25T10:02:51.895Z,54.80
2017-10-25T10:06:18.207Z,54.80
2017-10-25T10:09:43.580Z,54.90
2017-10-25T10:13:10.045Z,55.50
2017-10-25T10:16:35.331Z,54.90
2017-10-25T10:20:00.643Z,54.90
2017-10-25T10:23:25.890Z,54.90
2017-10-25T10:26:51.269Z,54.90
2017-10-25T10:30:16.518Z,54.90
2017-10-25T10:33:42.891Z,54.90
2017-10-25T10:37:08.599Z,55.10
2017-10-25T10:40:33.992Z,54.90
2017-10-25T10:44:01.777Z,54.90
2017-10-25T10:47:27.416Z,55.00
2017-10-25T10:50:53.480Z,55.10
2017-10-25T10:54:19.482Z,55.10
2017-10-25T10:57:45.512Z,55.10
2017-10-25T11:01:10.979Z,55.10
2017-10-25T11:04:36.286Z,55.10
2017-10-25T11:08:01.602Z,55.10
2017-10-25T11:11:26.824Z,55.20
2017-10-25T11:14:52.052Z,55.20
2017-10-25T11:18:17.356Z,55.20
2017-10-25T11:21:42.787Z,55.20
2017-10-25T11:25:08.108Z,55.20
2017-10-25T11:28:33.391Z,55.10
2017-10-25T11:31:59.334Z,55.10
2017-10-25T11:35:26.877Z,55.10
2017-10-25T11:38:52.959Z,55.20
2017-10-25T11:42:18.582Z,55.10
2017-10-25T11:45:44.022Z,55.10
2017-10-25T11:49:10.495Z,55.20
2017-10-25T11:52:36.322Z,55.20
2017-10-25T11:56:02.245Z,55.30
2017-10-25T11:59:27.895Z,55.30
2017-10-25T12:02:53.678Z,55.20
2017-10-25T12:06:18.951Z,55.20
2017-10-25T12:09:45.567Z,55.20
2017-10-25T12:13:11.750Z,55.00
2017-10-25T12:16:37.068Z,55.00
2017-10-25T12:20:03.544Z,55.20
2017-10-25T12:23:29.534Z,55.20
2017-10-25T12:26:56.036Z,55.30
2017-10-25T12:30:26.353Z,55.30
2017-10-25T12:33:51.829Z,55.90
2017-10-25T12:37:17.348Z,55.40
2017-10-25T12:40:43.446Z,55.30
2017-10-25T12:44:08.864Z,55.30
2017-10-25T12:47:34.141Z,55.20
2017-10-25T12:51:00.514Z,55.10
2017-10-25T12:54:25.735Z,55.10
2017-10-25T12:57:52.165Z,55.20
2017-10-25T13:01:17.620Z,55.10
2017-10-25T13:04:44.576Z,55.00
2017-10-25T13:08:12.364Z,54.90
2017-10-25T13:12:08.325Z,54.90
2017-10-25T13:16:18.682Z,54.90
2017-10-25T13:19:45.328Z,54.90
2017-10-25T13:23:10.496Z,54.90
2017-10-25T13:26:36.431Z,55.00
2017-10-25T13:30:05.976Z,55.10
2017-10-25T13:33:31.366Z,55.00
2017-10-25T13:37:02.123Z,55.10
2017-10-25T13:40:27.479Z,55.10
2017-10-25T13:44:00.091Z,55.20
2017-10-25T13:47:26.958Z,55.20
2017-10-25T13:50:52.421Z,55.20
2017-10-25T13:54:18.501Z,55.30
2017-10-25T13:57:43.721Z,55.40
2017-10-25T14:01:09.109Z,55.40
2017-10-25T14:04:35.174Z,55.40
2017-10-25T14:08:00.467Z,55.30
2017-10-25T14:11:25.776Z,55.30
2017-10-25T14:14:52.319Z,55.40
2017-10-25T14:18:20.859Z,55.00
2017-10-25T14:21:50.946Z,54.80
2017-10-25T14:25:19.779Z,54.80
2017-10-25T14:28:54.680Z,54.80
2017-10-25T14:32:21.968Z,54.30
2017-10-25T14:35:47.584Z,54.20
2017-10-25T14:39:15.396Z,53.30
2017-10-25T14:42:41.023Z,53.30
2017-10-25T14:46:12.406Z,52.50
2017-10-25T14:49:38.067Z,52.50
2017-10-25T14:53:03.588Z,52.30
2017-10-25T14:56:32.295Z,51.80
2017-10-25T14:59:57.670Z,51.50
2017-10-25T15:03:23.352Z,51.20
2017-10-25T15:06:54.983Z,51.20
2017-10-25T15:10:21.723Z,51.20
2017-10-25T15:13:50.250Z,51.10
2017-10-25T15:17:15.994Z,51.20
2017-10-25T15:20:44.325Z,51.20
2017-10-25T15:24:10.514Z,51.40
2017-10-25T15:41:39.835Z,52.10
2017-10-25T15:45:05.729Z,52.40
2017-10-25T15:48:32.297Z,53.00
2017-10-25T15:55:34.498Z,53.10
2017-10-25T15:59:15.112Z,53.10
2017-10-25T16:02:41.584Z,53.30
2017-10-25T16:06:07.914Z,53.30
2017-10-25T16:09:39.179Z,53.50
2017-10-25T16:13:06.791Z,53.50
2017-10-25T16:16:34.504Z,53.80
2017-10-25T16:20:00.646Z,53.70
2017-10-25T16:23:28.932Z,53.90
2017-10-25T16:26:54.547Z,54.00
2017-10-25T16:30:30.997Z,54.00
2017-10-25T16:33:57.719Z,54.10
2017-10-25T16:37:24.720Z,54.20
2017-10-25T16:40:50.426Z,54.20
2017-10-25T16:44:16.278Z,54.20
2017-10-25T16:47:42.883Z,54.40
2017-10-25T16:51:10.447Z,54.50
2017-10-25T16:54:37.258Z,54.50
2017-10-25T16:58:04.110Z,54.50
2017-10-25T17:05:00.648Z,54.60
2017-10-25T17:08:27.240Z,54.80
2017-10-25T17:11:52.839Z,54.90
2017-10-25T17:15:18.349Z,55.00
2017-10-25T17:18:46.504Z,55.10
2017-10-25T17:22:13.491Z,55.00
2017-10-25T17:25:44.115Z,55.10
2017-10-25T17:29:09.534Z,55.10
2017-10-25T17:32:44.888Z,55.10
2017-10-25T17:36:11.811Z,54.80
2017-10-25T17:39:41.608Z,54.30
2017-10-25T17:43:10.290Z,54.30
2017-10-25T17:46:36.569Z,53.80
2017-10-25T17:50:06.281Z,53.60
2017-10-25T17:53:31.798Z,53.60
2017-10-25T17:56:59.638Z,53.30
2017-10-25T18:00:28.337Z,53.00
2017-10-25T18:03:54.698Z,52.80
2017-10-25T18:07:25.283Z,52.80
2017-10-25T18:10:55.261Z,52.90
2017-10-25T18:14:22.089Z,52.80
2017-10-25T18:17:50.962Z,53.00
2017-10-25T18:21:20.050Z,53.30
2017-10-25T18:24:47.339Z,53.50
2017-10-25T18:28:15.129Z,53.40
2017-10-25T18:31:44.713Z,53.50
2017-10-25T18:35:12.956Z,53.50
2017-10-25T18:38:42.987Z,53.60
2017-10-25T18:42:10.469Z,53.80
2017-10-25T18:45:41.312Z,53.80
2017-10-25T18:49:09.687Z,53.90
2017-10-25T18:52:37.120Z,54.00
2017-10-25T18:56:04.800Z,54.00
2017-10-25T18:59:33.894Z,54.10
2017-10-25T19:03:00.162Z,54.30
2017-10-25T19:06:27.901Z,54.30
2017-10-25T19:09:53.731Z,54.50
2017-10-25T19:13:19.180Z,54.60
2017-10-25T19:16:48.947Z,54.90
2017-10-25T19:20:19.450Z,55.40
2017-10-25T19:23:47.108Z,55.10
2017-10-25T19:27:16.596Z,55.30
2017-10-25T19:30:49.669Z,55.50
2017-10-25T19:34:21.346Z,55.70
2017-10-25T19:37:48.242Z,55.80
2017-10-25T19:41:15.726Z,55.90
2017-10-25T19:44:42.388Z,56.00
2017-10-25T19:48:11.089Z,56.20
2017-10-25T19:51:39.790Z,56.20
2017-10-25T19:55:08.454Z,56.20
2017-10-25T19:58:35.211Z,56.20
2017-10-25T20:02:08.698Z,56.40
2017-10-25T20:05:36.201Z,56.40
2017-10-25T20:09:04.268Z,56.70
2017-10-25T20:12:33.532Z,56.70
2017-10-25T20:16:02.865Z,56.80
2017-10-25T20:19:29.788Z,57.00
2017-10-25T20:22:58.136Z,57.00
2017-10-25T20:26:27.313Z,57.10
2017-10-25T20:30:05.672Z,57.20
2017-10-25T20:33:32.415Z,57.30
2017-10-25T20:36:58.753Z,57.30
2017-10-25T20:40:25.698Z,57.50
2017-10-25T20:43:53.017Z,57.50
2017-10-25T20:47:19.274Z,57.60
2017-10-25T20:50:46.558Z,57.60
2017-10-25T20:54:13.089Z,57.60
2017-10-25T20:57:39.552Z,57.70
2017-10-25T21:01:05.649Z,57.70
2017-10-25T21:04:31.236Z,57.80
2017-10-25T21:07:57.904Z,57.80
2017-10-25T21:11:23.814Z,57.80
2017-10-25T21:14:49.589Z,57.80
2017-10-25T21:18:17.402Z,57.90
2017-10-25T21:21:43.726Z,57.90
2017-10-25T21:25:09.263Z,58.30
2017-10-25T21:28:35.171Z,57.90
2017-10-25T21:32:00.942Z,58.00
2017-10-25T21:35:26.806Z,58.00
2017-10-25T21:38:52.181Z,57.90
2017-10-25T21:42:18.430Z,57.90
2017-10-25T21:45:44.027Z,57.90
2017-10-25T21:49:14.067Z,57.90
2017-10-25T21:52:40.357Z,57.90
2017-10-25T21:56:06.311Z,57.90
2017-10-25T21:59:37.501Z,57.80
2017-10-25T22:03:07.154Z,57.80
2017-10-25T22:06:33.235Z,57.80
2017-10-25T22:10:00.034Z,57.90
2017-10-25T22:13:26.304Z,57.80
2017-10-25T22:16:53.779Z,57.90
2017-10-25T22:20:19.711Z,57.80
2017-10-25T22:23:45.334Z,57.90
2017-10-25T22:27:14.388Z,57.90
2017-10-25T22:30:45.331Z,57.90
2017-10-25T22:34:10.805Z,57.90
2017-10-25T22:37:36.569Z,57.90
2017-10-25T22:41:02.561Z,57.80
2017-10-25T22:44:28.416Z,57.80
2017-10-25T22:47:53.788Z,57.80
2017-10-25T22:51:19.462Z,57.80
2017-10-25T22:54:45.450Z,57.90
2017-10-25T22:58:10.837Z,57.80
2017-10-25T23:01:36.198Z,57.80
2017-10-25T23:05:03.393Z,57.90
2017-10-25T23:08:28.538Z,57.90
2017-10-25T23:11:53.970Z,57.80
2017-10-25T23:15:21.878Z,57.80
2017-10-25T23:18:51.698Z,57.80
2017-10-25T23:22:20.048Z,57.80
2017-10-25T23:25:49.105Z,57.70
2017-10-25T23:29:17.195Z,57.70
2017-10-25T23:32:44.452Z,57.70
2017-10-25T23:36:10.527Z,57.70
2017-10-25T23:39:35.992Z,57.60
2017-10-25T23:43:02.479Z,57.60
2017-10-25T23:46:29.226Z,57.60
2017-10-25T23:49:54.903Z,57.60
2017-10-25T23:53:22.615Z,57.70
2017-10-25T23:56:49.362Z,57.70
